createdAt,value
2018-02-16T00:00:29.305Z,4.00
2018-02-16T00:01:29.247Z,4.00
2018-02-16T00:02:29.188Z,4.00
2018-02-16T00:03:29.121Z,4.00
2018-02-16T00:04:29.069Z,4.00
2018-02-16T00:05:29.008Z,4.00
2018-02-16T00:06:28.951Z,4.00
2018-02-16T00:07:28.890Z,4.00
2018-02-16T00:08:28.829Z,4.00
2018-02-16T00:09:28.768Z,4.00
2018-02-16T00:10:28.715Z,4.00
2018-02-16T00:11:28.652Z,4.00
2018-02-16T00:12:28.594Z,4.00
2018-02-16T00:13:28.535Z,4.00
2018-02-16T00:14:28.472Z,4.00
2018-02-16T00:15:28.412Z,4.00
2018-02-16T00:16:28.353Z,4.00
2018-02-16T00:17:28.294Z,4.00
2018-02-16T00:18:28.235Z,4.00
2018-02-16T00:19:28.173Z,4.00
2018-02-16T00:20:28.115Z,4.00
2018-02-16T00:21:28.057Z,4.00
2018-02-16T00:22:27.997Z,4.00
2018-02-16T00:23:27.937Z,4.00
2018-02-16T00:24:27.878Z,4.00
2018-02-16T00:25:27.818Z,4.00
2018-02-16T00:26:27.759Z,4.00
2018-02-16T00:27:27.708Z,4.00
2018-02-16T00:28:27.640Z,4.00
2018-02-16T00:29:27.582Z,4.00
2018-02-16T00:30:27.524Z,4.00
2018-02-16T00:31:27.461Z,4.00
2018-02-16T00:32:27.403Z,4.00
2018-02-16T00:33:27.348Z,4.00
2018-02-16T00:34:27.289Z,4.00
2018-02-16T00:35:27.225Z,4.00
2018-02-16T00:36:27.163Z,4.00
2018-02-16T00:37:27.105Z,4.00
2018-02-16T00:38:27.056Z,4.00
2018-02-16T00:39:26.987Z,4.00
2018-02-16T00:40:26.927Z,4.00
2018-02-16T00:41:26.873Z,4.00
2018-02-16T00:42:26.811Z,4.00
2018-02-16T00:43:26.749Z,4.00
2018-02-16T00:44:26.691Z,4.00
2018-02-16T00:45:26.629Z,4.00
2018-02-16T00:46:26.572Z,4.00
2018-02-16T00:47:26.513Z,4.00
2018-02-16T00:48:26.452Z,4.00
2018-02-16T00:49:26.393Z,4.00
2018-02-16T00:50:26.334Z,4.00
2018-02-16T00:51:26.274Z,4.00
2018-02-16T00:52:26.216Z,4.00
2018-02-16T00:53:26.160Z,4.00
2018-02-16T00:54:26.097Z,4.00
2018-02-16T00:55:26.039Z,4.00
2018-02-16T00:56:25.978Z,4.00
2018-02-16T00:57:25.920Z,4.00
2018-02-16T00:58:25.861Z,4.00
2018-02-16T00:59:25.801Z,4.00
2018-02-16T01:00:25.743Z,4.00
2018-02-16T01:01:25.682Z,4.00
2018-02-16T01:02:25.624Z,4.00
2018-02-16T01:03:25.572Z,4.00
2018-02-16T01:04:25.503Z,0.00
2018-02-16T01:05:25.452Z,4.00
2018-02-16T01:06:25.387Z,4.00
2018-02-16T01:07:25.346Z,4.00
2018-02-16T01:08:25.270Z,4.00
2018-02-16T01:09:25.209Z,4.00
2018-02-16T01:10:25.152Z,4.00
2018-02-16T01:11:25.090Z,4.00
2018-02-16T01:12:25.036Z,4.00
2018-02-16T01:13:24.973Z,4.00
2018-02-16T01:14:24.912Z,4.00
2018-02-16T01:15:24.853Z,4.00
2018-02-16T01:16:24.793Z,4.00
2018-02-16T01:17:24.736Z,4.00
2018-02-16T01:18:24.679Z,4.00
2018-02-16T01:19:24.616Z,4.00
2018-02-16T01:20:24.559Z,4.00
2018-02-16T01:21:24.499Z,4.00
2018-02-16T01:22:24.441Z,4.00
2018-02-16T01:23:24.380Z,4.00
2018-02-16T01:24:24.321Z,4.00
2018-02-16T01:25:24.270Z,4.00
2018-02-16T01:26:24.202Z,4.00
2018-02-16T01:27:24.143Z,4.00
2018-02-16T01:28:24.084Z,4.00
2018-02-16T01:29:24.037Z,4.00
2018-02-16T01:30:23.968Z,4.00
2018-02-16T01:31:23.907Z,4.00
2018-02-16T01:32:23.846Z,4.00
2018-02-16T01:33:23.790Z,4.00
2018-02-16T01:34:23.733Z,4.00
2018-02-16T01:35:23.671Z,4.00
2018-02-16T01:36:23.610Z,4.00
2018-02-16T01:37:23.557Z,4.00
2018-02-16T01:38:23.494Z,4.00
2018-02-16T01:39:23.436Z,4.00
2018-02-16T01:40:23.376Z,4.00
2018-02-16T01:41:23.314Z,4.00
2018-02-16T01:42:23.257Z,4.00
2018-02-16T01:43:23.201Z,4.00
2018-02-16T01:44:23.138Z,4.00
2018-02-16T01:45:23.079Z,4.00
2018-02-16T01:46:23.020Z,4.00
2018-02-16T01:47:22.962Z,4.00
2018-02-16T01:48:22.902Z,4.00
2018-02-16T01:49:22.843Z,4.00
2018-02-16T01:50:22.783Z,4.00
2018-02-16T01:51:22.724Z,4.00
2018-02-16T01:52:22.665Z,4.00
2018-02-16T01:53:22.610Z,4.00
2018-02-16T01:54:22.550Z,4.00
2018-02-16T01:55:22.488Z,4.00
2018-02-16T01:56:22.432Z,4.00
2018-02-16T01:57:22.369Z,4.00
2018-02-16T01:58:22.316Z,4.00
2018-02-16T01:59:22.252Z,4.00
2018-02-16T02:00:22.192Z,4.00
2018-02-16T02:01:22.134Z,4.00
2018-02-16T02:02:22.075Z,4.00
2018-02-16T02:03:22.016Z,4.00
2018-02-16T02:04:21.956Z,4.00
2018-02-16T02:05:21.900Z,4.00
2018-02-16T02:06:21.840Z,4.00
2018-02-16T02:07:21.778Z,4.00
2018-02-16T02:08:21.722Z,4.00
2018-02-16T02:09:21.664Z,4.00
2018-02-16T02:10:21.603Z,4.00
2018-02-16T02:11:21.543Z,4.00
2018-02-16T02:12:21.486Z,4.00
2018-02-16T02:13:21.428Z,4.00
2018-02-16T02:14:21.368Z,4.00
2018-02-16T02:15:21.307Z,4.00
2018-02-16T02:16:21.248Z,4.00
2018-02-16T02:17:21.192Z,4.00
2018-02-16T02:18:21.132Z,4.00
2018-02-16T02:19:21.074Z,4.00
2018-02-16T02:20:21.012Z,4.00
2018-02-16T02:21:20.956Z,4.00
2018-02-16T02:22:20.896Z,4.00
2018-02-16T02:23:20.837Z,4.00
2018-02-16T02:24:20.777Z,4.00
2018-02-16T02:25:20.718Z,4.00
2018-02-16T02:26:20.662Z,4.00
2018-02-16T02:27:20.605Z,4.00
2018-02-16T02:28:20.543Z,4.00
2018-02-16T02:29:20.483Z,4.00
2018-02-16T02:30:20.428Z,4.00
2018-02-16T02:31:20.367Z,4.00
2018-02-16T02:32:20.311Z,4.00
2018-02-16T02:33:20.249Z,4.00
2018-02-16T02:34:20.191Z,4.00
2018-02-16T02:35:20.134Z,4.00
2018-02-16T02:36:20.070Z,4.00
2018-02-16T02:37:20.012Z,4.00
2018-02-16T02:38:19.953Z,4.00
2018-02-16T02:39:19.894Z,4.00
2018-02-16T02:40:19.834Z,4.00
2018-02-16T02:41:19.776Z,4.00
2018-02-16T02:42:19.721Z,4.00
2018-02-16T02:43:19.656Z,4.00
2018-02-16T02:44:19.602Z,4.00
2018-02-16T02:45:19.546Z,4.00
2018-02-16T02:46:19.481Z,4.00
2018-02-16T02:47:19.421Z,4.00
2018-02-16T02:48:19.362Z,4.00
2018-02-16T02:49:19.305Z,4.00
2018-02-16T02:50:19.247Z,4.00
2018-02-16T02:51:19.187Z,4.00
2018-02-16T02:52:19.132Z,4.00
2018-02-16T02:53:19.072Z,4.00
2018-02-16T02:54:19.009Z,4.00
2018-02-16T02:55:18.951Z,4.00
2018-02-16T02:56:18.890Z,4.00
2018-02-16T02:57:18.835Z,4.00
2018-02-16T02:58:18.773Z,4.00
2018-02-16T02:59:18.713Z,4.00
2018-02-16T03:00:18.658Z,4.00
2018-02-16T03:01:18.596Z,4.00
2018-02-16T03:02:18.539Z,4.00
2018-02-16T03:03:18.478Z,4.00
2018-02-16T03:04:18.422Z,4.00
2018-02-16T03:05:18.361Z,4.00
2018-02-16T03:06:18.304Z,4.00
2018-02-16T03:07:18.242Z,4.00
2018-02-16T03:08:18.183Z,0.00
2018-02-16T03:09:18.129Z,4.00
2018-02-16T03:10:18.067Z,4.00
2018-02-16T03:11:18.008Z,4.00
2018-02-16T03:12:17.952Z,4.00
2018-02-16T03:13:17.889Z,4.00
2018-02-16T03:14:17.830Z,4.00
2018-02-16T03:15:17.772Z,4.00
2018-02-16T03:16:17.714Z,4.00
2018-02-16T03:17:17.653Z,4.00
2018-02-16T03:18:17.597Z,4.00
2018-02-16T03:19:17.537Z,4.00
2018-02-16T03:20:17.477Z,4.00
2018-02-16T03:21:17.420Z,4.00
2018-02-16T03:22:17.361Z,4.00
2018-02-16T03:23:17.302Z,4.00
2018-02-16T03:24:17.243Z,4.00
2018-02-16T03:25:17.186Z,4.00
2018-02-16T03:26:17.124Z,4.00
2018-02-16T03:27:17.066Z,4.00
2018-02-16T03:28:17.006Z,4.00
2018-02-16T03:29:16.953Z,4.00
2018-02-16T03:30:16.899Z,4.00
2018-02-16T03:31:16.829Z,4.00
2018-02-16T03:32:16.771Z,4.00
2018-02-16T03:33:16.711Z,4.00
2018-02-16T03:34:16.654Z,4.00
2018-02-16T03:35:16.595Z,4.00
2018-02-16T03:36:16.536Z,4.00
2018-02-16T03:37:16.477Z,4.00
2018-02-16T03:38:16.419Z,4.00
2018-02-16T03:39:16.357Z,4.00
2018-02-16T03:40:16.299Z,4.00
2018-02-16T03:41:16.241Z,4.00
2018-02-16T03:42:16.180Z,4.00
2018-02-16T03:43:16.124Z,4.00
2018-02-16T03:44:16.088Z,4.00
2018-02-16T03:45:16.004Z,4.00
2018-02-16T03:46:15.947Z,4.00
2018-02-16T03:47:15.885Z,4.00
2018-02-16T03:48:15.829Z,4.00
2018-02-16T03:49:15.768Z,4.00
2018-02-16T03:50:15.711Z,4.00
2018-02-16T03:51:15.660Z,4.00
2018-02-16T03:52:15.591Z,4.00
2018-02-16T03:53:15.532Z,4.00
2018-02-16T03:54:15.474Z,4.00
2018-02-16T03:55:15.416Z,4.00
2018-02-16T03:56:15.355Z,4.00
2018-02-16T03:57:15.297Z,4.00
2018-02-16T03:58:15.240Z,4.00
2018-02-16T03:59:15.177Z,4.00
2018-02-16T04:00:15.117Z,4.00
2018-02-16T04:01:15.063Z,4.00
2018-02-16T04:02:15.004Z,4.00
2018-02-16T04:03:14.942Z,4.00
2018-02-16T04:04:14.883Z,4.00
2018-02-16T04:05:14.824Z,4.00
2018-02-16T04:06:14.762Z,4.00
2018-02-16T04:07:14.706Z,4.00
2018-02-16T04:08:14.645Z,0.00
2018-02-16T04:09:14.586Z,4.00
2018-02-16T04:10:14.527Z,4.00
2018-02-16T04:11:14.467Z,0.00
2018-02-16T04:12:14.406Z,4.00
2018-02-16T04:13:14.348Z,4.00
2018-02-16T04:14:14.291Z,4.00
2018-02-16T04:15:14.231Z,4.00
2018-02-16T04:16:14.170Z,4.00
2018-02-16T04:17:14.109Z,4.00
2018-02-16T04:18:14.062Z,4.00
2018-02-16T04:19:13.997Z,4.00
2018-02-16T04:20:13.933Z,4.00
2018-02-16T04:21:13.873Z,4.00
2018-02-16T04:22:13.813Z,4.00
2018-02-16T04:23:13.750Z,4.00
2018-02-16T04:24:13.691Z,4.00
2018-02-16T04:25:13.634Z,4.00
2018-02-16T04:26:13.576Z,4.00
2018-02-16T04:27:13.513Z,4.00
2018-02-16T04:28:13.454Z,4.00
2018-02-16T04:29:13.394Z,4.00
2018-02-16T04:30:13.333Z,4.00
2018-02-16T04:31:13.274Z,4.00
2018-02-16T04:32:13.216Z,4.00
2018-02-16T04:33:13.158Z,4.00
2018-02-16T04:34:13.096Z,4.00
2018-02-16T04:35:13.038Z,4.00
2018-02-16T04:36:12.978Z,4.00
2018-02-16T04:37:12.919Z,4.00
2018-02-16T04:38:12.859Z,4.00
2018-02-16T04:39:12.798Z,4.00
2018-02-16T04:40:12.768Z,0.00
2018-02-16T04:41:12.677Z,4.00
2018-02-16T04:42:12.624Z,4.00
2018-02-16T04:43:12.559Z,4.00
2018-02-16T04:44:12.499Z,4.00
2018-02-16T04:45:12.442Z,4.00
2018-02-16T04:46:12.381Z,4.00
2018-02-16T04:47:12.321Z,4.00
2018-02-16T04:48:12.260Z,4.00
2018-02-16T04:49:12.201Z,4.00
2018-02-16T04:50:12.141Z,4.00
2018-02-16T04:51:12.081Z,4.00
2018-02-16T04:52:12.020Z,4.00
2018-02-16T04:53:11.965Z,4.00
2018-02-16T04:54:11.902Z,4.00
2018-02-16T04:55:11.846Z,4.00
2018-02-16T04:56:11.783Z,4.00
2018-02-16T04:57:11.723Z,4.00
2018-02-16T04:58:11.663Z,4.00
2018-02-16T04:59:11.604Z,4.00
2018-02-16T05:00:11.544Z,0.00
2018-02-16T05:01:11.484Z,4.00
2018-02-16T05:02:11.427Z,4.00
2018-02-16T05:03:11.363Z,4.00
2018-02-16T05:04:11.306Z,4.00
2018-02-16T05:05:11.249Z,4.00
2018-02-16T05:06:11.186Z,4.00
2018-02-16T05:07:11.127Z,4.00
2018-02-16T05:08:11.065Z,4.00
2018-02-16T05:09:11.006Z,4.00
2018-02-16T05:10:10.948Z,0.00
2018-02-16T05:11:10.884Z,4.00
2018-02-16T05:12:10.829Z,4.00
2018-02-16T05:13:10.768Z,4.00
2018-02-16T05:14:10.709Z,4.00
2018-02-16T05:15:10.648Z,4.00
2018-02-16T05:16:10.587Z,4.00
2018-02-16T05:17:10.527Z,4.00
2018-02-16T05:18:10.470Z,4.00
2018-02-16T05:19:10.407Z,4.00
2018-02-16T05:20:10.348Z,4.00
2018-02-16T05:21:10.290Z,4.00
2018-02-16T05:22:10.229Z,4.00
2018-02-16T05:23:10.172Z,4.00
2018-02-16T05:24:10.110Z,4.00
2018-02-16T05:25:10.051Z,4.00
2018-02-16T05:26:09.992Z,4.00
2018-02-16T05:27:09.929Z,4.00
2018-02-16T05:28:09.869Z,4.00
2018-02-16T05:29:09.812Z,4.00
2018-02-16T05:30:09.751Z,4.00
2018-02-16T05:31:09.702Z,4.00
2018-02-16T05:32:09.629Z,4.00
2018-02-16T05:33:09.572Z,4.00
2018-02-16T05:34:09.512Z,4.00
2018-02-16T05:35:09.452Z,4.00
2018-02-16T05:36:09.392Z,4.00
2018-02-16T05:37:09.331Z,4.00
2018-02-16T05:38:09.274Z,4.00
2018-02-16T05:39:09.212Z,4.00
2018-02-16T05:40:09.184Z,0.00
2018-02-16T05:41:09.101Z,0.00
2018-02-16T05:42:09.037Z,4.00
2018-02-16T05:43:08.975Z,4.00
2018-02-16T05:44:08.914Z,4.00
2018-02-16T05:45:08.858Z,4.00
2018-02-16T05:46:08.800Z,4.00
2018-02-16T05:47:08.735Z,0.00
2018-02-16T05:48:08.676Z,4.00
2018-02-16T05:49:08.619Z,4.00
2018-02-16T05:50:08.560Z,4.00
2018-02-16T05:51:08.497Z,0.00
2018-02-16T05:52:08.438Z,0.00
2018-02-16T05:53:08.377Z,4.00
2018-02-16T05:54:08.317Z,4.00
2018-02-16T05:55:08.258Z,4.00
2018-02-16T05:56:08.199Z,0.00
2018-02-16T05:57:08.140Z,0.00
2018-02-16T05:58:08.079Z,0.00
2018-02-16T05:59:08.018Z,0.00
2018-02-16T06:00:07.961Z,0.00
2018-02-16T06:01:07.914Z,0.00
2018-02-16T06:02:07.840Z,4.00
2018-02-16T06:03:07.780Z,4.00
2018-02-16T06:04:07.724Z,4.00
2018-02-16T06:05:07.661Z,4.00
2018-02-16T06:06:07.602Z,4.00
2018-02-16T06:07:07.541Z,0.00
2018-02-16T06:08:07.481Z,4.00
2018-02-16T06:09:07.424Z,4.00
2018-02-16T06:10:07.368Z,8.00
2018-02-16T06:11:07.303Z,4.00
2018-02-16T06:12:07.246Z,8.00
2018-02-16T06:13:07.184Z,8.00
2018-02-16T06:14:07.129Z,12.00
2018-02-16T06:15:07.062Z,8.00
2018-02-16T06:16:07.003Z,12.00
2018-02-16T06:17:06.943Z,12.00
2018-02-16T06:18:06.885Z,12.00
2018-02-16T06:19:06.824Z,16.00
2018-02-16T06:20:06.773Z,16.00
2018-02-16T06:21:06.708Z,24.00
2018-02-16T06:22:06.645Z,24.00
2018-02-16T06:23:06.586Z,24.00
2018-02-16T06:24:06.525Z,28.00
2018-02-16T06:25:06.474Z,32.00
2018-02-16T06:26:06.407Z,32.00
2018-02-16T06:27:06.346Z,40.00
2018-02-16T06:28:06.286Z,44.00
2018-02-16T06:29:06.232Z,40.00
2018-02-16T06:30:06.166Z,36.00
2018-02-16T06:31:06.146Z,44.00
2018-02-16T06:32:06.049Z,52.00
2018-02-16T06:33:05.986Z,60.00
2018-02-16T06:34:05.926Z,64.00
2018-02-16T06:35:05.867Z,64.00
2018-02-16T06:36:05.808Z,68.00
2018-02-16T06:37:05.747Z,68.00
2018-02-16T06:38:05.692Z,64.00
2018-02-16T06:39:05.627Z,68.00
2018-02-16T06:40:05.568Z,80.00
2018-02-16T06:41:05.508Z,100.00
2018-02-16T06:42:05.452Z,108.00
2018-02-16T06:43:05.390Z,116.00
2018-02-16T06:44:05.330Z,124.00
2018-02-16T06:45:05.267Z,136.00
2018-02-16T06:46:05.208Z,148.00
2018-02-16T06:47:05.148Z,164.00
2018-02-16T06:48:05.088Z,176.00
2018-02-16T06:49:05.029Z,180.00
2018-02-16T06:50:04.970Z,184.00
2018-02-16T06:51:04.908Z,188.00
2018-02-16T06:52:04.854Z,180.00
2018-02-16T06:53:04.793Z,204.00
2018-02-16T06:54:04.729Z,236.00
2018-02-16T06:55:04.670Z,272.00
2018-02-16T06:56:04.611Z,280.00
2018-02-16T06:57:04.555Z,288.00
2018-02-16T06:58:04.489Z,280.00
2018-02-16T06:59:04.430Z,300.00
2018-02-16T07:00:04.371Z,264.00
2018-02-16T07:01:04.310Z,200.00
2018-02-16T07:02:04.252Z,212.00
2018-02-16T07:03:04.201Z,292.00
2018-02-16T07:04:04.137Z,280.00
2018-02-16T07:05:04.073Z,272.00
2018-02-16T07:06:04.012Z,280.00
2018-02-16T07:07:03.950Z,328.00
2018-02-16T07:08:03.891Z,416.00
2018-02-16T07:09:03.831Z,484.00
2018-02-16T07:10:03.775Z,524.00
2018-02-16T07:11:03.713Z,544.00
2018-02-16T07:12:03.668Z,540.00
2018-02-16T07:13:03.594Z,608.00
2018-02-16T07:14:03.532Z,652.00
2018-02-16T07:15:03.471Z,688.00
2018-02-16T07:16:03.412Z,692.00
2018-02-16T07:17:03.357Z,620.00
2018-02-16T07:18:03.295Z,612.00
2018-02-16T07:19:03.241Z,528.00
2018-02-16T07:20:03.177Z,492.00
2018-02-16T07:21:03.113Z,512.00
2018-02-16T07:22:03.053Z,600.00
2018-02-16T07:23:02.993Z,680.00
2018-02-16T07:24:02.934Z,776.00
2018-02-16T07:25:02.874Z,876.00
2018-02-16T07:26:02.817Z,1060.00
2018-02-16T07:27:02.756Z,1132.00
2018-02-16T07:28:02.697Z,1288.00
2018-02-16T07:29:02.635Z,1280.00
2018-02-16T07:30:02.583Z,1172.00
2018-02-16T07:31:02.518Z,1092.00
2018-02-16T07:32:02.455Z,976.00
2018-02-16T07:33:02.399Z,996.00
2018-02-16T07:34:02.334Z,1052.00
2018-02-16T07:35:02.282Z,1104.00
2018-02-16T07:36:03.118Z,1296.00
2018-02-16T07:37:02.158Z,1444.00
2018-02-16T07:38:02.097Z,1620.00
2018-02-16T07:39:02.036Z,1744.00
2018-02-16T07:40:01.977Z,1816.00
2018-02-16T07:41:01.918Z,1772.00
2018-02-16T07:42:01.857Z,1756.00
2018-02-16T07:43:01.798Z,1704.00
2018-02-16T07:44:01.733Z,1684.00
2018-02-16T07:45:01.675Z,1640.00
2018-02-16T07:46:01.616Z,1732.00
2018-02-16T07:47:01.554Z,1796.00
2018-02-16T07:48:01.493Z,1800.00
2018-02-16T07:49:01.436Z,1992.00
2018-02-16T07:50:01.375Z,1924.00
2018-02-16T07:51:01.318Z,2072.00
2018-02-16T07:52:01.257Z,2176.00
2018-02-16T07:53:01.196Z,2316.00
2018-02-16T07:54:01.135Z,2368.00
2018-02-16T07:55:01.076Z,2432.00
2018-02-16T07:56:01.018Z,2280.00
2018-02-16T07:57:00.954Z,2120.00
2018-02-16T07:58:00.898Z,2148.00
2018-02-16T07:59:00.837Z,2268.00
2018-02-16T08:00:00.780Z,2416.00
2018-02-16T08:01:00.715Z,2360.00
2018-02-16T08:02:00.661Z,2328.00
2018-02-16T08:03:00.598Z,2260.00
2018-02-16T08:04:00.536Z,2176.00
2018-02-16T08:05:00.476Z,2116.00
2018-02-16T08:06:00.419Z,2076.00
2018-02-16T08:07:00.356Z,2076.00
2018-02-16T08:08:00.295Z,1992.00
2018-02-16T08:09:00.235Z,1732.00
2018-02-16T08:10:00.177Z,1868.00
2018-02-16T08:11:00.115Z,2012.00
2018-02-16T08:12:00.057Z,2048.00
2018-02-16T08:12:59.998Z,2144.00
2018-02-16T08:13:59.935Z,2268.00
2018-02-16T08:14:59.878Z,2272.00
2018-02-16T08:15:59.816Z,2584.00
2018-02-16T08:16:59.758Z,2576.00
2018-02-16T08:17:59.696Z,2776.00
2018-02-16T08:18:59.636Z,3092.00
2018-02-16T08:19:59.580Z,3268.00
2018-02-16T08:20:59.517Z,3248.00
2018-02-16T08:21:59.457Z,3292.00
2018-02-16T08:22:59.398Z,3304.00
2018-02-16T08:23:59.338Z,3396.00
2018-02-16T08:24:59.279Z,3244.00
2018-02-16T08:25:59.219Z,3264.00
2018-02-16T08:26:59.159Z,3160.00
2018-02-16T08:27:59.098Z,2824.00
2018-02-16T08:28:59.038Z,2580.00
2018-02-16T08:29:58.978Z,2908.00
2018-02-16T08:30:58.920Z,2984.00
2018-02-16T08:31:58.859Z,3092.00
2018-02-16T08:32:58.801Z,2944.00
2018-02-16T08:33:58.740Z,3092.00
2018-02-16T08:34:58.680Z,3160.00
2018-02-16T08:35:58.619Z,2912.00
2018-02-16T08:36:58.563Z,2948.00
2018-02-16T08:37:58.506Z,3036.00
2018-02-16T08:38:58.439Z,2992.00
2018-02-16T08:39:58.396Z,2908.00
2018-02-16T08:40:58.322Z,2824.00
2018-02-16T08:41:58.264Z,2724.00
2018-02-16T08:42:58.201Z,2956.00
2018-02-16T08:43:58.142Z,3088.00
2018-02-16T08:44:58.083Z,3424.00
2018-02-16T08:45:58.025Z,3296.00
2018-02-16T08:46:57.965Z,2840.00
2018-02-16T08:47:57.903Z,2612.00
2018-02-16T08:48:57.846Z,2412.00
2018-02-16T08:49:57.784Z,2276.00
2018-02-16T08:50:57.726Z,2312.00
2018-02-16T08:51:57.665Z,2256.00
2018-02-16T08:52:57.605Z,2616.00
2018-02-16T08:53:57.547Z,2932.00
2018-02-16T08:54:57.514Z,3124.00
2018-02-16T08:55:57.427Z,3496.00
2018-02-16T08:56:57.367Z,3588.00
2018-02-16T08:57:57.309Z,3316.00
2018-02-16T08:58:57.249Z,3352.00
2018-02-16T08:59:57.191Z,3572.00
2018-02-16T09:00:57.131Z,3652.00
2018-02-16T09:01:57.072Z,3548.00
2018-02-16T09:02:57.011Z,3612.00
2018-02-16T09:03:56.951Z,3760.00
2018-02-16T09:04:56.893Z,3928.00
2018-02-16T09:05:56.834Z,3988.00
2018-02-16T09:06:56.776Z,3604.00
2018-02-16T09:07:56.732Z,3140.00
2018-02-16T09:08:56.655Z,2872.00
2018-02-16T09:09:56.596Z,2648.00
2018-02-16T09:10:56.537Z,2612.00
2018-02-16T09:11:56.477Z,2612.00
2018-02-16T09:12:56.418Z,2624.00
2018-02-16T09:13:56.359Z,2636.00
2018-02-16T09:14:56.297Z,2832.00
2018-02-16T09:15:56.239Z,3112.00
2018-02-16T09:16:56.180Z,3524.00
2018-02-16T09:17:56.120Z,3960.00
2018-02-16T09:18:56.059Z,4316.00
2018-02-16T09:19:56.001Z,4356.00
2018-02-16T09:20:55.943Z,4172.00
2018-02-16T09:21:55.885Z,3716.00
2018-02-16T09:22:55.860Z,3036.00
2018-02-16T09:23:55.765Z,2892.00
2018-02-16T09:24:55.709Z,3260.00
2018-02-16T09:25:55.644Z,3812.00
2018-02-16T09:26:55.585Z,4084.00
2018-02-16T09:27:55.528Z,4180.00
2018-02-16T09:28:55.470Z,3912.00
2018-02-16T09:29:55.411Z,3440.00
2018-02-16T09:30:55.349Z,3064.00
2018-02-16T09:31:55.291Z,2800.00
2018-02-16T09:32:55.233Z,2636.00
2018-02-16T09:33:55.176Z,2580.00
2018-02-16T09:34:55.115Z,2488.00
2018-02-16T09:35:55.055Z,2560.00
2018-02-16T09:36:55.006Z,2952.00
2018-02-16T09:37:54.939Z,3252.00
2018-02-16T09:38:54.877Z,3104.00
2018-02-16T09:39:54.817Z,2760.00
2018-02-16T09:40:54.760Z,2544.00
2018-02-16T09:41:54.699Z,2512.00
2018-02-16T09:42:54.640Z,2744.00
2018-02-16T09:43:54.580Z,3028.00
2018-02-16T09:44:54.528Z,3316.00
2018-02-16T09:45:54.464Z,3456.00
2018-02-16T09:46:54.406Z,3560.00
2018-02-16T09:47:54.344Z,4012.00
2018-02-16T09:48:54.288Z,4160.00
2018-02-16T09:49:54.236Z,4008.00
2018-02-16T09:50:54.169Z,4020.00
2018-02-16T09:51:54.108Z,4596.00
2018-02-16T09:52:54.049Z,5504.00
2018-02-16T09:53:53.990Z,5964.00
2018-02-16T09:54:53.936Z,5824.00
2018-02-16T09:55:53.876Z,5932.00
2018-02-16T09:56:53.813Z,6272.00
2018-02-16T09:57:53.761Z,6652.00
2018-02-16T09:58:53.698Z,5932.00
2018-02-16T09:59:53.636Z,5472.00
2018-02-16T10:00:53.582Z,5256.00
2018-02-16T10:01:53.519Z,4840.00
2018-02-16T10:02:53.460Z,4788.00
2018-02-16T10:03:53.404Z,5072.00
2018-02-16T10:04:53.345Z,5484.00
2018-02-16T10:05:53.287Z,5352.00
2018-02-16T10:06:53.226Z,5380.00
2018-02-16T10:07:53.160Z,5608.00
2018-02-16T10:08:53.109Z,5500.00
2018-02-16T10:09:53.051Z,5520.00
2018-02-16T10:10:52.991Z,5708.00
2018-02-16T10:11:52.932Z,5912.00
2018-02-16T10:12:52.924Z,6000.00
2018-02-16T10:13:52.817Z,5796.00
2018-02-16T10:14:52.757Z,5968.00
2018-02-16T10:15:52.702Z,5920.00
2018-02-16T10:16:52.641Z,5940.00
2018-02-16T10:17:52.584Z,5984.00
2018-02-16T10:18:52.521Z,6156.00
2018-02-16T10:19:52.464Z,6268.00
2018-02-16T10:20:52.410Z,5968.00
2018-02-16T10:21:52.348Z,5652.00
2018-02-16T10:22:52.288Z,5284.00
2018-02-16T10:23:52.230Z,5420.00
2018-02-16T10:24:52.174Z,6096.00
2018-02-16T10:25:52.113Z,7124.00
2018-02-16T10:26:52.054Z,7712.00
2018-02-16T10:27:51.998Z,7632.00
2018-02-16T10:28:51.941Z,7500.00
2018-02-16T10:29:51.881Z,7316.00
2018-02-16T10:30:51.820Z,6992.00
2018-02-16T10:31:51.763Z,6936.00
2018-02-16T10:32:51.704Z,7120.00
2018-02-16T10:33:51.647Z,7776.00
2018-02-16T10:34:51.589Z,8292.00
2018-02-16T10:35:51.536Z,8400.00
2018-02-16T10:36:51.471Z,8620.00
2018-02-16T10:37:51.414Z,8444.00
2018-02-16T10:38:51.356Z,8960.00
2018-02-16T10:39:51.319Z,9100.00
2018-02-16T10:40:51.239Z,8852.00
2018-02-16T10:41:51.210Z,8792.00
2018-02-16T10:42:51.127Z,8756.00
2018-02-16T10:43:51.066Z,8724.00
2018-02-16T10:44:51.008Z,8648.00
2018-02-16T10:45:50.951Z,8696.00
2018-02-16T10:46:50.901Z,9260.00
2018-02-16T10:47:50.837Z,9960.00
2018-02-16T10:48:50.777Z,10132.00
2018-02-16T10:49:50.760Z,9900.00
2018-02-16T10:50:50.664Z,9900.00
2018-02-16T10:51:50.605Z,9652.00
2018-02-16T10:52:50.547Z,9356.00
2018-02-16T10:53:50.488Z,8972.00
2018-02-16T10:54:50.433Z,8148.00
2018-02-16T10:55:50.374Z,7604.00
2018-02-16T10:56:50.316Z,7788.00
2018-02-16T10:57:50.259Z,8088.00
2018-02-16T10:58:50.198Z,7920.00
2018-02-16T10:59:50.147Z,7640.00
2018-02-16T11:00:50.085Z,7280.00
2018-02-16T11:01:50.029Z,7564.00
2018-02-16T11:02:49.970Z,7728.00
2018-02-16T11:03:49.915Z,7980.00
2018-02-16T11:04:49.855Z,8344.00
2018-02-16T11:05:49.797Z,8276.00
2018-02-16T11:06:49.735Z,8000.00
2018-02-16T11:07:49.684Z,7800.00
2018-02-16T11:08:49.625Z,7964.00
2018-02-16T11:09:49.570Z,8072.00
2018-02-16T11:10:49.509Z,7924.00
2018-02-16T11:11:49.453Z,7928.00
2018-02-16T11:12:49.430Z,7836.00
2018-02-16T11:13:49.337Z,7668.00
2018-02-16T11:14:49.279Z,7396.00
2018-02-16T11:15:49.224Z,7164.00
2018-02-16T11:16:49.164Z,7172.00
2018-02-16T11:17:49.111Z,7508.00
2018-02-16T11:18:49.049Z,7836.00
2018-02-16T11:19:48.992Z,7988.00
2018-02-16T11:20:48.935Z,8080.00
2018-02-16T11:21:48.879Z,7960.00
2018-02-16T11:22:48.820Z,7616.00
2018-02-16T11:23:48.782Z,6996.00
2018-02-16T11:24:48.708Z,6668.00
2018-02-16T11:25:48.652Z,6796.00
2018-02-16T11:26:48.594Z,7100.00
2018-02-16T11:27:48.533Z,7528.00
2018-02-16T11:28:48.479Z,7772.00
2018-02-16T11:29:48.420Z,7888.00
2018-02-16T11:30:48.364Z,8152.00
2018-02-16T11:31:48.304Z,8320.00
2018-02-16T11:32:48.252Z,8396.00
2018-02-16T11:33:48.188Z,8520.00
2018-02-16T11:34:48.137Z,8764.00
2018-02-16T11:35:48.076Z,9160.00
2018-02-16T11:36:48.051Z,9384.00
2018-02-16T11:37:47.963Z,9464.00
2018-02-16T11:38:47.919Z,9312.00
2018-02-16T11:39:47.845Z,8984.00
2018-02-16T11:40:47.794Z,8520.00
2018-02-16T11:41:47.739Z,7892.00
2018-02-16T11:42:47.675Z,7296.00
2018-02-16T11:43:47.618Z,6848.00
2018-02-16T11:44:47.562Z,6672.00
2018-02-16T11:45:47.501Z,6712.00
2018-02-16T11:46:47.445Z,6696.00
2018-02-16T11:47:47.386Z,6568.00
2018-02-16T11:48:47.334Z,6452.00
2018-02-16T11:49:47.276Z,6460.00
2018-02-16T11:50:47.215Z,6420.00
2018-02-16T11:51:47.159Z,6180.00
2018-02-16T11:52:47.100Z,5868.00
2018-02-16T11:53:47.050Z,5708.00
2018-02-16T11:54:46.986Z,6044.00
2018-02-16T11:55:46.928Z,5976.00
2018-02-16T11:56:46.871Z,5448.00
2018-02-16T11:57:46.813Z,5196.00
2018-02-16T11:58:46.758Z,4916.00
2018-02-16T11:59:46.698Z,4452.00
2018-02-16T12:00:46.644Z,4160.00
2018-02-16T12:01:46.582Z,4024.00
2018-02-16T12:02:46.526Z,4176.00
2018-02-16T12:03:46.470Z,4444.00
2018-02-16T12:04:46.411Z,4460.00
2018-02-16T12:05:46.354Z,4676.00
2018-02-16T12:06:46.295Z,4888.00
2018-02-16T12:07:46.239Z,5520.00
2018-02-16T12:08:46.183Z,6132.00
2018-02-16T12:09:46.123Z,6060.00
2018-02-16T12:10:46.064Z,5816.00
2018-02-16T12:11:46.006Z,5532.00
2018-02-16T12:12:45.949Z,5316.00
2018-02-16T12:13:45.890Z,5112.00
2018-02-16T12:14:45.833Z,5212.00
2018-02-16T12:15:45.776Z,5136.00
2018-02-16T12:16:45.718Z,4960.00
2018-02-16T12:17:45.659Z,4920.00
2018-02-16T12:18:45.602Z,5068.00
2018-02-16T12:19:45.549Z,5208.00
2018-02-16T12:20:45.486Z,5636.00
2018-02-16T12:21:45.428Z,5948.00
2018-02-16T12:22:45.370Z,5888.00
2018-02-16T12:23:45.313Z,5980.00
2018-02-16T12:24:45.254Z,6428.00
2018-02-16T12:25:45.198Z,6656.00
2018-02-16T12:26:45.141Z,6612.00
2018-02-16T12:27:45.081Z,6576.00
2018-02-16T12:28:45.026Z,6496.00
2018-02-16T12:29:44.968Z,6748.00
2018-02-16T12:30:44.909Z,7180.00
2018-02-16T12:31:44.852Z,7576.00
2018-02-16T12:32:44.796Z,7872.00
2018-02-16T12:33:44.736Z,8124.00
2018-02-16T12:34:44.678Z,8240.00
2018-02-16T12:35:44.621Z,8408.00
2018-02-16T12:36:44.569Z,8024.00
2018-02-16T12:37:44.506Z,7596.00
2018-02-16T12:38:44.453Z,6440.00
2018-02-16T12:39:44.391Z,6000.00
2018-02-16T12:40:44.334Z,6512.00
2018-02-16T12:41:44.277Z,7380.00